createdAt,value
2019-05-19T00:06:44.927Z,12.8
2019-05-19T00:36:46.246Z,12.8
2019-05-19T01:06:47.162Z,12.8
2019-05-19T01:36:47.326Z,12.8
2019-05-19T02:06:48.257Z,12.7
2019-05-19T02:36:49.057Z,12.7
2019-05-19T03:06:50.245Z,12.7
2019-05-19T03:36:50.454Z,12.7
2019-05-19T04:06:55.578Z,12.7
2019-05-19T04:36:56.450Z,12.7
2019-05-19T05:06:56.329Z,12.7
2019-05-19T05:36:56.538Z,12.7
2019-05-19T06:06:57.978Z,12.7
2019-05-19T06:36:59.369Z,12.7
2019-05-19T07:07:00.185Z,12.8
2019-05-19T07:37:01.409Z,12.8
2019-05-19T08:07:01.833Z,12.8
2019-05-19T08:37:03.687Z,12.9
2019-05-19T09:07:04.088Z,13
2019-05-19T09:37:04.141Z,13.1
2019-05-19T10:07:09.231Z,13.2
2019-05-19T10:37:06.167Z,13.4
2019-05-19T11:07:13.487Z,13.6
2019-05-19T11:37:16.334Z,13.8
2019-05-19T12:07:13.786Z,13.8
2019-05-19T12:37:18.074Z,13.8
2019-05-19T13:07:16.962Z,13.8
2019-05-19T13:37:19.221Z,13.7
2019-05-19T14:07:16.728Z,13.7
2019-05-19T14:37:17.938Z,13.8
2019-05-19T15:07:20.761Z,13.9
2019-05-19T15:37:19.984Z,13.9
2019-05-19T16:07:21.729Z,14
2019-05-19T16:37:21.366Z,14
2019-05-19T17:07:21.706Z,13.8
2019-05-19T17:37:23.492Z,13.6
2019-05-19T18:07:33.393Z,13.5
2019-05-19T18:37:30.564Z,13.3
2019-05-19T19:07:29.624Z,13.2
2019-05-19T19:37:49.561Z,13.2
2019-05-19T20:07:49.484Z,13.1
2019-05-19T20:37:51.725Z,13.1
2019-05-19T21:06:31.748Z,12.9
2019-05-19T21:36:33.828Z,12.9
2019-05-19T22:06:35.179Z,12.9
2019-05-19T22:36:35.380Z,12.9
2019-05-19T23:06:36.643Z,12.9
2019-05-19T23:36:37.506Z,12.8
